Time;durP1;ratioP1;P1;durP2;ratioP2;P2;SDS_P1;SDS_P2;PMS_P1;PMS_P2;Temp;Humidity;BMP_temperature;BMP_pressure;BME280_temperature;BME280_humidity;BME280_pressure;Samples;Min_cycle;Max_cycle;Signal;HPM_P1;HPM_P2
2022/04/30 00:00:06;;;;;;;12.65;8.55;;;7.40;99.90;;;;;;5011611;28;20038;-70
2022/04/30 00:02:32;;;;;;;21.55;8.60;;;7.40;99.90;;;;;;5010439;28;20095;-70
2022/04/30 00:04:57;;;;;;;17.00;9.13;;;7.40;99.90;;;;;;5010776;28;20478;-70
2022/04/30 00:07:23;;;;;;;16.60;9.40;;;7.40;99.90;;;;;;5011764;28;20029;-70
2022/04/30 00:09:49;;;;;;;19.42;9.25;;;7.40;99.90;;;;;;5011734;28;20089;-70
2022/04/30 00:12:18;;;;;;;19.27;10.35;;;7.40;99.90;;;;;;5010194;28;20038;-70
2022/04/30 00:14:44;;;;;;;18.48;10.90;;;7.30;99.90;;;;;;5010673;28;20070;-70
2022/04/30 00:17:10;;;;;;;15.95;10.07;;;7.30;99.90;;;;;;5010464;28;20076;-70
2022/04/30 00:19:35;;;;;;;20.85;11.15;;;7.30;99.90;;;;;;5010696;28;20460;-70
2022/04/30 00:22:02;;;;;;;19.33;10.10;;;7.30;99.90;;;;;;5011511;28;20045;-70
2022/04/30 00:24:28;;;;;;;16.63;9.68;;;7.30;99.90;;;;;;5011450;28;20061;-71
2022/04/30 00:26:59;;;;;;;18.55;9.80;;;7.30;99.90;;;;;;5010290;28;20038;-70
2022/04/30 00:29:26;;;;;;;20.60;9.50;;;7.30;99.90;;;;;;5010366;28;20096;-70
2022/04/30 00:31:52;;;;;;;16.17;9.65;;;7.30;99.90;;;;;;5011290;28;20088;-70
2022/04/30 00:34:18;;;;;;;18.77;9.60;;;7.30;99.90;;;;;;5011571;28;20038;-70
2022/04/30 00:36:43;;;;;;;16.65;10.23;;;7.20;99.90;;;;;;5010498;28;20110;-71
2022/04/30 00:39:09;;;;;;;19.70;11.00;;;7.30;99.90;;;;;;5010603;28;20053;-71
2022/04/30 00:41:36;;;;;;;16.92;9.60;;;7.30;99.90;;;;;;5009919;28;20113;-71
2022/04/30 00:44:01;;;;;;;16.67;9.60;;;7.30;99.90;;;;;;5011496;28;20065;-71
2022/04/30 00:46:27;;;;;;;16.42;8.73;;;7.30;99.90;;;;;;5010380;28;20118;-70
2022/04/30 00:48:53;;;;;;;20.58;10.10;;;7.30;99.90;;;;;;5013112;28;20092;-70
2022/04/30 00:51:22;;;;;;;14.45;9.70;;;7.30;99.90;;;;;;5014791;28;20034;-70
2022/04/30 00:53:50;;;;;;;14.50;9.60;;;7.30;99.90;;;;;;5014830;28;20049;-70
2022/04/30 00:56:22;;;;;;;17.30;9.73;;;7.30;99.90;;;;;;5013630;28;20414;-70
2022/04/30 00:58:49;;;;;;;17.15;9.80;;;7.20;99.90;;;;;;5014848;28;20519;-71
2022/04/30 01:01:15;;;;;;;20.00;9.13;;;7.30;99.90;;;;;;5014675;28;20096;-70
2022/04/30 01:03:41;;;;;;;12.95;10.65;;;7.20;99.90;;;;;;5014696;28;20411;-70
2022/04/30 01:06:08;;;;;;;15.13;9.25;;;7.20;99.90;;;;;;5013776;28;20076;-71
2022/04/30 01:08:36;;;;;;;14.43;8.63;;;7.20;99.90;;;;;;5014722;28;20030;-70
2022/04/30 01:11:04;;;;;;;15.38;8.57;;;7.20;99.90;;;;;;5013421;28;20038;-71
2022/04/30 01:13:36;;;;;;;15.88;9.05;;;7.20;99.90;;;;;;5013336;28;20048;-70
2022/04/30 01:16:08;;;;;;;14.23;9.32;;;7.30;99.90;;;;;;5013650;28;20038;-70
2022/04/30 01:18:34;;;;;;;14.88;8.95;;;7.20;99.90;;;;;;5013367;28;20057;-70
2022/04/30 01:21:03;;;;;;;16.92;9.60;;;7.20;99.90;;;;;;5014142;28;20038;-70
2022/04/30 01:23:32;;;;;;;16.30;8.65;;;7.20;99.90;;;;;;5012785;28;20038;-70
2022/04/30 01:26:00;;;;;;;14.02;8.45;;;7.20;99.90;;;;;;5011945;28;20092;-70
2022/04/30 01:28:26;;;;;;;17.85;9.07;;;7.20;99.90;;;;;;5013305;28;20125;-70
2022/04/30 01:30:52;;;;;;;17.70;8.85;;;7.20;99.90;;;;;;5012754;28;20472;-70
2022/04/30 01:37:22;;;;;;;12.48;9.02;;;7.20;99.90;;;;;;5013302;28;20042;-70
2022/04/30 01:38:56;;;;;;;19.42;8.85;;;7.20;99.90;;;;;;5012884;28;20056;-70
2022/04/30 01:41:22;;;;;;;17.33;10.38;;;7.20;99.90;;;;;;5012820;28;20125;-70
2022/04/30 01:43:49;;;;;;;18.83;9.18;;;7.10;99.90;;;;;;5012760;28;20579;-70
2022/04/30 01:46:14;;;;;;;15.45;8.00;;;7.10;99.90;;;;;;5011945;28;20046;-71
2022/04/30 01:48:41;;;;;;;14.13;7.88;;;7.10;99.90;;;;;;5013133;28;20511;-70
2022/04/30 01:51:06;;;;;;;14.35;7.53;;;7.20;99.90;;;;;;5011427;28;20074;-70
2022/04/30 01:53:32;;;;;;;12.90;8.38;;;7.20;99.90;;;;;;5012852;28;20037;-70
2022/04/30 01:55:59;;;;;;;13.77;7.60;;;7.20;99.90;;;;;;5012802;28;20087;-70
2022/04/30 01:58:26;;;;;;;16.55;8.13;;;7.20;99.90;;;;;;5011555;28;20104;-70
2022/04/30 02:00:53;;;;;;;10.63;7.82;;;7.10;99.90;;;;;;5010450;28;20052;-70
2022/04/30 02:03:18;;;;;;;13.25;9.23;;;7.10;99.90;;;;;;5012721;28;20042;-70
2022/04/30 02:05:45;;;;;;;14.65;7.93;;;7.10;99.90;;;;;;5011641;28;20097;-70
2022/04/30 02:08:12;;;;;;;11.95;7.88;;;7.10;99.90;;;;;;5012653;28;20069;-70
2022/04/30 02:10:40;;;;;;;13.23;7.55;;;7.10;99.90;;;;;;5011231;28;20042;-70
2022/04/30 02:13:08;;;;;;;16.77;7.95;;;7.20;99.90;;;;;;5012445;28;20073;-70
2022/04/30 02:15:35;;;;;;;16.17;8.32;;;7.10;99.90;;;;;;5011210;28;20042;-70
2022/04/30 02:18:03;;;;;;;15.40;8.07;;;7.10;99.90;;;;;;5012644;28;20052;-71
2022/04/30 02:20:33;;;;;;;14.45;8.70;;;7.20;99.90;;;;;;5012142;28;20491;-70
2022/04/30 02:23:04;;;;;;;12.35;7.57;;;7.20;99.90;;;;;;4977298;28;1009317;-70
2022/04/30 02:25:31;;;;;;;12.63;8.05;;;7.20;99.90;;;;;;5011933;28;20073;-70
2022/04/30 02:27:59;;;;;;;17.92;8.38;;;7.20;99.90;;;;;;5012181;28;20048;-70
2022/04/30 02:30:26;;;;;;;12.25;8.07;;;7.20;99.90;;;;;;5011592;28;20034;-70
2022/04/30 02:32:54;;;;;;;15.27;8.60;;;7.10;99.90;;;;;;5011866;28;20046;-70
2022/04/30 02:35:25;;;;;;;10.43;7.82;;;7.10;99.90;;;;;;5013108;28;20046;-70
2022/04/30 02:37:54;;;;;;;11.18;7.53;;;7.10;99.90;;;;;;5011690;28;20088;-70
2022/04/30 02:40:22;;;;;;;16.90;7.78;;;7.10;99.90;;;;;;5012631;28;20514;-70
2022/04/30 02:42:50;;;;;;;12.52;7.18;;;7.10;99.90;;;;;;5011799;28;20045;-70
2022/04/30 02:45:17;;;;;;;10.85;7.65;;;7.10;99.90;;;;;;5012919;28;20047;-70
2022/04/30 02:47:45;;;;;;;15.32;7.82;;;7.10;99.90;;;;;;5011546;28;20057;-70
2022/04/30 02:50:12;;;;;;;13.25;7.93;;;7.10;99.90;;;;;;5012504;28;20087;-70
2022/04/30 02:52:41;;;;;;;12.38;7.40;;;7.10;99.90;;;;;;5012725;28;20113;-70
2022/04/30 02:55:07;;;;;;;17.17;7.78;;;7.10;99.90;;;;;;5011377;28;20045;-70
2022/04/30 03:00:34;;;;;;;10.93;7.03;;;7.10;99.90;;;;;;5011457;28;20053;-70
2022/04/30 03:02:59;;;;;;;14.35;8.48;;;7.10;99.90;;;;;;5011190;28;20423;-70
2022/04/30 03:05:25;;;;;;;16.17;7.47;;;7.10;99.90;;;;;;5012606;28;20121;-70
2022/04/30 03:07:52;;;;;;;13.65;8.20;;;7.10;99.90;;;;;;5011453;28;20070;-70
2022/04/30 03:10:18;;;;;;;14.55;7.85;;;7.10;99.90;;;;;;5012271;28;20053;-70
2022/04/30 03:12:43;;;;;;;12.52;7.55;;;7.10;99.90;;;;;;5011277;28;20050;-70
2022/04/30 03:15:10;;;;;;;16.17;8.13;;;7.10;99.90;;;;;;5012489;28;20038;-70
2022/04/30 03:23:05;;;;;;;10.80;6.97;;;7.00;99.90;;;;;;5012437;28;20081;-70
2022/04/30 03:25:30;;;;;;;13.23;7.78;;;7.00;99.90;;;;;;5011286;28;20069;-70
2022/04/30 03:27:56;;;;;;;11.98;7.85;;;7.00;99.90;;;;;;5011070;28;20038;-70
2022/04/30 03:30:22;;;;;;;11.95;7.43;;;7.00;99.90;;;;;;5011865;28;20100;-70
2022/04/30 03:32:49;;;;;;;11.75;8.10;;;7.00;99.90;;;;;;5012402;28;20030;-70
2022/04/30 03:35:14;;;;;;;15.23;7.70;;;6.90;99.90;;;;;;5012275;28;20044;-70
2022/04/30 03:37:40;;;;;;;14.60;7.00;;;7.00;99.90;;;;;;5012092;28;20041;-70
2022/04/30 03:40:06;;;;;;;13.13;7.72;;;7.00;99.90;;;;;;5010517;28;20070;-70
2022/04/30 03:42:33;;;;;;;14.00;7.68;;;6.90;99.90;;;;;;5012022;28;20064;-70
2022/04/30 03:45:03;;;;;;;12.38;7.70;;;6.90;99.90;;;;;;5012052;28;20042;-70
2022/04/30 03:47:28;;;;;;;19.02;8.75;;;6.90;99.90;;;;;;5011047;28;20380;-70
2022/04/30 03:49:54;;;;;;;10.07;6.90;;;7.00;99.90;;;;;;5010672;28;20041;-70
2022/04/30 03:52:19;;;;;;;10.82;7.50;;;6.90;99.90;;;;;;5012018;28;20045;-70
2022/04/30 03:54:45;;;;;;;10.75;7.40;;;6.90;99.90;;;;;;5011004;28;20049;-70
2022/04/30 03:57:10;;;;;;;11.27;7.22;;;6.90;99.90;;;;;;5011810;28;20568;-70
2022/04/30 03:59:36;;;;;;;17.48;8.43;;;6.80;99.90;;;;;;5011789;28;20526;-70
2022/04/30 04:02:02;;;;;;;14.68;7.53;;;6.80;99.90;;;;;;5011805;28;20041;-70
2022/04/30 04:04:29;;;;;;;13.13;7.55;;;6.90;99.90;;;;;;5011723;28;20042;-70
2022/04/30 04:06:55;;;;;;;13.38;7.55;;;6.80;99.90;;;;;;5010605;28;20080;-70
2022/04/30 04:09:21;;;;;;;19.30;8.23;;;6.80;99.90;;;;;;5010486;28;20042;-70
2022/04/30 04:11:47;;;;;;;11.00;7.10;;;6.80;99.90;;;;;;5010073;28;20134;-70
2022/04/30 04:17:42;;;;;;;10.07;6.97;;;6.80;99.90;;;;;;5011953;28;20041;-70
2022/04/30 04:19:42;;;;;;;11.02;6.70;;;6.80;99.90;;;;;;5003314;28;20058;-70
2022/04/30 04:22:08;;;;;;;16.65;8.30;;;6.80;99.90;;;;;;5011554;28;20052;-70
2022/04/30 04:27:18;;;;;;;9.45;7.38;;;6.80;99.90;;;;;;5015444;28;20415;-70
2022/04/30 04:29:44;;;;;;;12.35;7.50;;;6.80;99.90;;;;;;5015506;28;20116;-70
2022/04/30 04:32:09;;;;;;;10.20;7.85;;;6.80;99.90;;;;;;5013901;28;20037;-70
2022/04/30 04:34:35;;;;;;;13.48;7.68;;;6.80;99.90;;;;;;5014250;28;20128;-70
2022/04/30 04:37:01;;;;;;;11.20;8.32;;;6.80;99.90;;;;;;5015484;28;20041;-70
2022/04/30 04:39:26;;;;;;;11.48;7.85;;;6.80;99.90;;;;;;5014006;28;20037;-70
2022/04/30 04:41:52;;;;;;;12.88;7.90;;;6.80;99.90;;;;;;5015023;28;20125;-70
2022/04/30 04:44:17;;;;;;;12.10;7.55;;;6.80;99.90;;;;;;5015045;28;20038;-70
2022/04/30 04:46:43;;;;;;;17.83;9.18;;;6.80;99.90;;;;;;5015165;28;20121;-70
2022/04/30 04:49:10;;;;;;;13.82;8.23;;;6.90;99.90;;;;;;5014057;28;20547;-70
2022/04/30 04:51:35;;;;;;;13.23;8.32;;;6.90;99.90;;;;;;5013447;28;20060;-70
2022/04/30 04:54:02;;;;;;;18.52;8.05;;;6.90;99.90;;;;;;5013872;28;20175;-70
2022/04/30 04:56:28;;;;;;;16.13;7.95;;;6.90;99.90;;;;;;5013621;28;20476;-70
2022/04/30 04:58:54;;;;;;;11.25;8.18;;;7.00;99.90;;;;;;5014974;28;20034;-70
2022/04/30 05:01:19;;;;;;;11.98;7.78;;;7.00;99.90;;;;;;5014435;28;20404;-70
2022/04/30 05:03:45;;;;;;;14.30;7.80;;;7.10;99.90;;;;;;5014598;28;20042;-70
2022/04/30 05:06:11;;;;;;;12.55;7.82;;;7.10;99.90;;;;;;5014908;28;20491;-70
2022/04/30 05:08:37;;;;;;;12.23;8.27;;;7.20;99.90;;;;;;5014782;28;20030;-70
2022/04/30 05:11:02;;;;;;;11.45;7.80;;;7.20;99.90;;;;;;5013236;28;20045;-70
2022/04/30 05:13:28;;;;;;;13.68;8.18;;;7.20;99.90;;;;;;5013502;28;20120;-70
2022/04/30 05:15:53;;;;;;;12.45;8.55;;;7.30;99.90;;;;;;5013308;28;20553;-70
2022/04/30 05:18:20;;;;;;;10.20;7.50;;;7.40;99.90;;;;;;5014478;28;20060;-70
2022/04/30 05:20:46;;;;;;;12.93;8.68;;;7.40;99.90;;;;;;5013157;28;20054;-70
2022/04/30 05:23:11;;;;;;;10.43;6.95;;;7.50;99.90;;;;;;5012967;28;20085;-70
2022/04/30 05:25:40;;;;;;;11.00;8.10;;;7.50;99.90;;;;;;5014526;28;20096;-70
2022/04/30 05:28:10;;;;;;;14.75;8.45;;;7.60;99.90;;;;;;5013120;28;20053;-70
2022/04/30 05:30:36;;;;;;;11.68;7.50;;;7.60;99.90;;;;;;5013045;28;20041;-70
2022/04/30 05:33:02;;;;;;;10.02;8.30;;;7.70;99.90;;;;;;5012870;28;20172;-70
2022/04/30 05:35:28;;;;;;;12.20;8.02;;;7.70;99.90;;;;;;5013119;28;20124;-70
2022/04/30 05:37:53;;;;;;;13.23;8.32;;;7.80;99.90;;;;;;5014360;28;20049;-70
2022/04/30 05:40:19;;;;;;;12.35;8.38;;;7.90;99.90;;;;;;5013922;28;20117;-70
2022/04/30 05:42:45;;;;;;;15.00;8.10;;;8.10;99.90;;;;;;5013032;28;20224;-70
2022/04/30 05:45:11;;;;;;;11.63;8.13;;;8.30;99.90;;;;;;5014142;28;20100;-70
2022/04/30 05:47:37;;;;;;;14.02;8.52;;;8.50;99.90;;;;;;5013930;28;20447;-70
2022/04/30 05:50:04;;;;;;;11.70;7.80;;;8.60;99.90;;;;;;5012676;28;20046;-70
2022/04/30 05:52:30;;;;;;;10.73;7.63;;;8.80;99.90;;;;;;5013830;28;20034;-70
2022/04/30 05:54:56;;;;;;;12.32;8.13;;;8.80;99.90;;;;;;5012729;28;20041;-70
2022/04/30 05:57:21;;;;;;;11.07;7.47;;;8.90;99.90;;;;;;5013765;28;20052;-70
2022/04/30 05:59:47;;;;;;;10.65;7.32;;;8.80;99.90;;;;;;5013676;28;20045;-70
2022/04/30 06:02:12;;;;;;;11.82;7.72;;;8.80;99.90;;;;;;5013259;28;20416;-70
2022/04/30 06:04:38;;;;;;;13.68;8.65;;;8.80;99.90;;;;;;5012191;28;20050;-70
2022/04/30 06:07:03;;;;;;;13.48;8.48;;;8.80;99.90;;;;;;5012550;28;20041;-70
2022/04/30 06:09:29;;;;;;;10.43;7.47;;;8.80;99.90;;;;;;5012112;28;20046;-70
2022/04/30 06:11:54;;;;;;;14.10;8.93;;;8.80;99.90;;;;;;5011862;28;20045;-70
2022/04/30 06:14:20;;;;;;;11.13;8.07;;;8.80;99.90;;;;;;5013370;28;20074;-70
2022/04/30 06:16:46;;;;;;;10.52;7.95;;;8.80;99.90;;;;;;5013365;28;20450;-70
2022/04/30 06:19:12;;;;;;;10.52;7.72;;;8.80;99.90;;;;;;5013367;28;20041;-70
2022/04/30 06:21:37;;;;;;;11.00;7.68;;;8.80;99.90;;;;;;5012037;28;20049;-70
2022/04/30 06:24:03;;;;;;;12.98;8.00;;;8.80;99.90;;;;;;5012991;28;20049;-70
2022/04/30 06:26:29;;;;;;;13.05;8.07;;;8.80;99.90;;;;;;5013321;28;20376;-70
2022/04/30 06:28:55;;;;;;;10.55;7.72;;;8.80;99.90;;;;;;5012182;28;20069;-70
2022/04/30 06:31:22;;;;;;;11.15;7.53;;;8.80;99.90;;;;;;5012673;28;20068;-70
2022/04/30 06:33:48;;;;;;;11.77;7.40;;;8.80;99.90;;;;;;5013085;28;20050;-70
2022/04/30 06:36:14;;;;;;;10.30;7.55;;;8.80;99.90;;;;;;5011809;28;20054;-70
2022/04/30 06:38:39;;;;;;;9.55;7.68;;;8.80;99.90;;;;;;5011773;28;20573;-70
2022/04/30 06:41:05;;;;;;;13.52;8.50;;;8.80;99.90;;;;;;5012673;28;20611;-70
2022/04/30 06:43:30;;;;;;;12.48;8.05;;;8.80;99.90;;;;;;5011595;28;20046;-70
2022/04/30 06:45:56;;;;;;;11.70;7.38;;;8.90;99.90;;;;;;5012377;28;20045;-70
2022/04/30 06:48:21;;;;;;;12.98;7.78;;;8.90;99.90;;;;;;5011564;28;20041;-70
2022/04/30 06:50:48;;;;;;;11.32;7.40;;;8.90;99.90;;;;;;5011243;28;20069;-70
2022/04/30 06:58:44;;;;;;;8.93;7.57;;;9.00;99.90;;;;;;5011445;28;20053;-70
2022/04/30 07:04:01;;;;;;;10.63;7.75;;;9.10;99.90;;;;;;5011148;28;20046;-70
2022/04/30 07:06:29;;;;;;;14.18;7.63;;;9.10;99.90;;;;;;5012678;28;20041;-69
2022/04/30 07:08:55;;;;;;;15.35;9.00;;;9.10;99.90;;;;;;5012265;28;20030;-70
2022/04/30 07:11:20;;;;;;;9.32;7.47;;;9.20;99.90;;;;;;5012385;28;20117;-69
2022/04/30 07:13:46;;;;;;;13.88;7.93;;;9.20;99.90;;;;;;5011017;28;20049;-70
2022/04/30 07:16:12;;;;;;;11.55;7.43;;;9.20;99.90;;;;;;5011102;28;20042;-70
2022/04/30 07:18:37;;;;;;;9.27;7.10;;;9.30;99.90;;;;;;5012374;28;20041;-69
2022/04/30 07:21:04;;;;;;;11.57;7.45;;;9.30;99.90;;;;;;5012057;28;20037;-69
2022/04/30 07:23:30;;;;;;;14.00;7.43;;;9.40;99.90;;;;;;5011954;28;20061;-70
2022/04/30 07:25:56;;;;;;;11.10;6.60;;;9.30;99.90;;;;;;5011214;28;20045;-70
2022/04/30 07:28:23;;;;;;;9.13;7.20;;;9.40;99.90;;;;;;5011218;28;20514;-70
2022/04/30 07:30:49;;;;;;;10.93;6.25;;;9.50;99.90;;;;;;5012044;28;20052;-70
2022/04/30 07:33:15;;;;;;;12.20;6.43;;;9.60;99.90;;;;;;5010870;28;20045;-70
2022/04/30 07:35:40;;;;;;;9.80;6.30;;;9.60;99.90;;;;;;4994437;28;20129;-70
2022/04/30 07:38:06;;;;;;;8.00;6.25;;;9.60;99.90;;;;;;5009763;28;20045;-70
2022/04/30 07:40:32;;;;;;;10.77;5.75;;;9.70;99.90;;;;;;5011942;28;20065;-70
2022/04/30 07:42:57;;;;;;;10.82;5.97;;;9.70;99.90;;;;;;5010763;28;20488;-70
2022/04/30 07:45:23;;;;;;;8.07;6.25;;;9.80;99.90;;;;;;5010711;28;20042;-70
2022/04/30 07:47:48;;;;;;;8.90;5.55;;;9.80;99.90;;;;;;5010746;28;20121;-70
2022/04/30 07:50:17;;;;;;;9.75;5.88;;;9.70;99.90;;;;;;5009790;28;20411;-70
2022/04/30 07:52:42;;;;;;;10.85;5.95;;;9.90;99.90;;;;;;5011665;28;20061;-70
2022/04/30 07:55:08;;;;;;;9.07;5.82;;;9.90;99.90;;;;;;5010673;28;20041;-70
2022/04/30 07:57:33;;;;;;;10.63;6.50;;;10.00;99.90;;;;;;5012964;28;20042;-70
2022/04/30 07:59:59;;;;;;;9.93;6.38;;;10.00;99.90;;;;;;5015466;28;20062;-70
2022/04/30 08:02:25;;;;;;;7.70;6.18;;;10.10;99.90;;;;;;5015559;28;20492;-70
2022/04/30 08:04:50;;;;;;;8.25;6.13;;;10.20;99.90;;;;;;5014036;28;20037;-70
2022/04/30 08:07:16;;;;;;;9.60;6.30;;;10.30;99.90;;;;;;5014027;28;20117;-70
2022/04/30 08:09:41;;;;;;;10.20;6.07;;;10.40;99.90;;;;;;5014046;28;20073;-70
2022/04/30 08:12:08;;;;;;;11.40;5.97;;;10.40;99.90;;;;;;5013759;28;20065;-70
2022/04/30 08:14:33;;;;;;;9.40;5.95;;;10.50;99.90;;;;;;5014917;28;20048;-69
2022/04/30 08:16:59;;;;;;;9.40;6.47;;;10.50;99.90;;;;;;5015344;28;20403;-70
2022/04/30 08:19:24;;;;;;;13.27;7.30;;;10.50;99.90;;;;;;5015579;28;20511;-69
2022/04/30 08:21:50;;;;;;;11.90;6.43;;;10.60;99.90;;;;;;5015108;28;20038;-69
2022/04/30 08:24:15;;;;;;;10.10;6.03;;;10.60;99.90;;;;;;5014079;28;20108;-69
2022/04/30 08:26:42;;;;;;;11.23;6.30;;;10.60;99.90;;;;;;5015517;28;20041;-69
2022/04/30 08:29:08;;;;;;;9.48;6.55;;;10.60;99.90;;;;;;5014384;28;20395;-69
2022/04/30 08:31:33;;;;;;;12.25;7.07;;;10.60;99.90;;;;;;5015111;28;20121;-69
2022/04/30 08:33:59;;;;;;;10.48;6.82;;;10.60;99.90;;;;;;4997630;28;20037;-69
2022/04/30 08:36:24;;;;;;;13.20;6.50;;;10.50;99.90;;;;;;5015188;28;20069;-69
2022/04/30 08:38:50;;;;;;;13.13;6.40;;;10.60;99.90;;;;;;5015215;28;20447;-69
2022/04/30 08:41:16;;;;;;;10.80;6.32;;;10.60;99.90;;;;;;5015120;28;20054;-69
2022/04/30 08:43:47;;;;;;;10.55;6.43;;;10.40;99.90;;;;;;5015141;28;20041;-69
2022/04/30 08:46:13;;;;;;;9.88;6.60;;;10.50;99.90;;;;;;5015230;28;20077;-69
2022/04/30 08:48:39;;;;;;;13.70;6.75;;;10.50;99.90;;;;;;5013889;28;20069;-69
2022/04/30 08:51:04;;;;;;;13.48;6.15;;;10.50;99.90;;;;;;5014624;28;20036;-69
2022/04/30 08:53:30;;;;;;;11.60;6.65;;;10.50;99.90;;;;;;5013614;28;20096;-69
2022/04/30 08:55:56;;;;;;;9.05;5.72;;;10.50;99.90;;;;;;5014966;28;20042;-69
2022/04/30 08:58:21;;;;;;;9.52;6.43;;;10.50;99.90;;;;;;5013723;28;20184;-69
2022/04/30 09:00:50;;;;;;;10.60;6.97;;;10.50;99.90;;;;;;5014209;28;20109;-69
2022/04/30 09:03:18;;;;;;;14.23;7.05;;;10.40;99.90;;;;;;5014744;28;20045;-71
2022/04/30 09:05:44;;;;;;;9.90;6.20;;;10.40;99.90;;;;;;5014653;28;20117;-69
2022/04/30 09:08:10;;;;;;;9.70;6.40;;;10.40;99.90;;;;;;5014578;28;20095;-69
2022/04/30 09:10:37;;;;;;;9.98;6.85;;;10.40;99.90;;;;;;5014541;28;20048;-70
2022/04/30 09:13:07;;;;;;;12.40;6.15;;;10.40;99.90;;;;;;5013270;28;20400;-70
2022/04/30 09:15:33;;;;;;;8.15;6.43;;;10.40;99.90;;;;;;5014895;28;20487;-71
2022/04/30 09:18:00;;;;;;;7.75;5.80;;;10.30;99.90;;;;;;5013825;28;20040;-71
2022/04/30 09:20:26;;;;;;;9.25;6.30;;;10.40;99.90;;;;;;5012976;28;20046;-68
2022/04/30 09:22:52;;;;;;;13.95;6.63;;;10.50;99.90;;;;;;5014883;28;20377;-69
2022/04/30 09:25:18;;;;;;;10.98;6.35;;;10.60;99.90;;;;;;5014130;28;20125;-70
2022/04/30 09:27:50;;;;;;;13.35;6.90;;;10.80;99.90;;;;;;5014225;28;20475;-70
2022/04/30 09:30:24;;;;;;;10.20;6.10;;;10.80;99.90;;;;;;5014000;28;20050;-70
2022/04/30 09:33:03;;;;;;;8.20;5.60;;;11.00;99.90;;;;;;5012264;28;20045;-70
2022/04/30 09:38:15;;;;;;;9.80;6.57;;;10.90;99.90;;;;;;5014344;28;20117;-70
2022/04/30 09:40:50;;;;;;;8.43;5.95;;;10.80;99.90;;;;;;5013949;28;20042;-70
2022/04/30 09:43:16;;;;;;;8.02;5.25;;;10.90;99.90;;;;;;5013915;28;20038;-70
2022/04/30 09:45:42;;;;;;;10.05;5.35;;;10.90;99.90;;;;;;5014263;28;20042;-69
2022/04/30 09:56:41;;;;;;;9.07;6.25;;;10.70;99.90;;;;;;5010939;28;20089;-70
2022/04/30 09:59:09;;;;;;;12.68;6.80;;;10.80;99.90;;;;;;5013960;28;20145;-69
2022/04/30 10:01:36;;;;;;;10.60;6.38;;;10.60;99.90;;;;;;5012485;28;20046;-69
2022/04/30 10:04:09;;;;;;;9.32;5.97;;;10.70;99.90;;;;;;5012870;28;20121;-69
2022/04/30 10:06:46;;;;;;;9.20;5.97;;;10.60;99.90;;;;;;5013687;28;20038;-69
2022/04/30 10:09:25;;;;;;;12.23;6.78;;;10.50;99.90;;;;;;5013643;28;20555;-69
2022/04/30 10:12:11;;;;;;;10.80;6.88;;;10.60;99.90;;;;;;5013267;28;20038;-69
2022/04/30 10:15:09;;;;;;;10.40;7.00;;;10.60;99.90;;;;;;5012485;28;20049;-69
2022/04/30 10:17:38;;;;;;;13.65;7.20;;;10.70;99.90;;;;;;5013419;28;20105;-69
2022/04/30 10:20:12;;;;;;;10.48;7.03;;;10.60;99.90;;;;;;5011348;28;20042;-69
2022/04/30 10:22:52;;;;;;;15.77;7.18;;;10.50;99.90;;;;;;5011987;28;20049;-69
2022/04/30 10:25:40;;;;;;;9.82;6.93;;;10.40;99.90;;;;;;5013164;28;20048;-69
2022/04/30 10:28:23;;;;;;;10.35;7.00;;;10.50;99.90;;;;;;5013310;28;20037;-69
2022/04/30 10:31:00;;;;;;;12.32;8.25;;;10.50;99.90;;;;;;5011989;28;20037;-69
2022/04/30 10:33:26;;;;;;;14.93;8.30;;;10.60;99.90;;;;;;5012938;28;20141;-68
2022/04/30 10:36:04;;;;;;;11.57;7.25;;;10.40;99.90;;;;;;5012050;28;20087;-69
2022/04/30 10:38:29;;;;;;;11.18;7.05;;;10.50;99.90;;;;;;5013000;28;20113;-69
2022/04/30 10:41:00;;;;;;;12.35;6.40;;;10.60;99.90;;;;;;5011659;28;20714;-69
2022/04/30 10:43:43;;;;;;;9.93;7.65;;;10.70;99.90;;;;;;5011414;28;20504;-69
2022/04/30 10:46:12;;;;;;;;;;;10.50;99.90;;;;;;5013507;28;20041;-69
2022/04/30 10:48:37;;;;;;;8.80;6.55;;;10.50;99.90;;;;;;5012912;28;19917;-69
2022/04/30 10:51:05;;;;;;;10.02;6.53;;;10.50;99.90;;;;;;5012435;28;20045;-69
2022/04/30 10:53:32;;;;;;;10.55;7.07;;;10.60;99.90;;;;;;5012733;28;20615;-69
2022/04/30 10:55:57;;;;;;;9.43;6.57;;;10.70;99.90;;;;;;5012347;28;20515;-70
2022/04/30 10:58:30;;;;;;;7.90;6.20;;;10.60;99.90;;;;;;5011054;28;20053;-69
2022/04/30 11:00:56;;;;;;;9.73;6.35;;;10.50;99.90;;;;;;5010052;28;20048;-69
2022/04/30 11:03:27;;;;;;;12.07;7.22;;;10.50;99.90;;;;;;5011840;28;20042;-69
2022/04/30 11:05:53;;;;;;;8.57;6.88;;;10.60;99.90;;;;;;5011762;28;20109;-70
2022/04/30 11:08:18;;;;;;;10.57;7.35;;;10.60;99.90;;;;;;5011910;28;20119;-70
2022/04/30 11:10:54;;;;;;;10.18;6.60;;;10.50;99.90;;;;;;4994021;28;20395;-70
2022/04/30 11:13:21;;;;;;;9.20;6.63;;;10.70;99.90;;;;;;5012017;28;20038;-70
2022/04/30 11:15:47;;;;;;;10.63;6.60;;;10.70;99.90;;;;;;5012213;28;20041;-70
2022/04/30 11:18:16;;;;;;;9.27;6.50;;;10.60;99.90;;;;;;5012034;28;20052;-70
2022/04/30 11:20:41;;;;;;;10.60;6.93;;;10.60;99.90;;;;;;5011784;28;20046;-70
2022/04/30 11:23:07;;;;;;;9.13;6.45;;;10.70;99.90;;;;;;5012000;28;20041;-70
2022/04/30 11:25:38;;;;;;;11.02;6.22;;;10.80;99.90;;;;;;5012665;28;20125;-69
2022/04/30 11:28:09;;;;;;;6.70;4.88;;;10.70;99.90;;;;;;5012486;28;20462;-70
2022/04/30 11:30:40;;;;;;;8.38;4.60;;;10.70;99.90;;;;;;5010720;28;20042;-70
2022/04/30 11:33:06;;;;;;;7.43;4.82;;;10.90;99.90;;;;;;5011638;28;20121;-70
2022/04/30 11:35:32;;;;;;;11.27;5.32;;;10.90;99.90;;;;;;5010365;28;20033;-70
2022/04/30 11:37:58;;;;;;;8.70;4.70;;;11.00;99.90;;;;;;5011623;28;20037;-71
2022/04/30 11:40:25;;;;;;;7.40;4.78;;;10.90;99.90;;;;;;5011333;28;20034;-68
2022/04/30 11:42:55;;;;;;;8.18;5.53;;;11.00;99.90;;;;;;5011226;28;20088;-68
2022/04/30 11:45:31;;;;;;;9.55;5.10;;;10.90;99.90;;;;;;5008897;28;20038;-69
2022/04/30 11:47:58;;;;;;;7.45;5.38;;;11.00;99.90;;;;;;5011099;28;20403;-69
2022/04/30 11:50:24;;;;;;;7.60;5.00;;;10.90;99.90;;;;;;5011194;28;20091;-69
2022/04/30 11:52:50;;;;;;;7.30;5.53;;;11.00;99.90;;;;;;5012089;28;20046;-69
2022/04/30 11:55:17;;;;;;;8.40;5.97;;;10.90;99.90;;;;;;5010923;28;20661;-69
2022/04/30 11:57:43;;;;;;;8.32;5.75;;;11.00;99.90;;;;;;5011863;28;20042;-69
2022/04/30 12:00:13;;;;;;;10.13;6.03;;;11.00;99.90;;;;;;5011656;28;20077;-69
2022/04/30 12:02:46;;;;;;;8.20;5.43;;;10.90;99.90;;;;;;5010422;28;20048;-68
2022/04/30 12:05:12;;;;;;;6.15;4.93;;;11.10;99.90;;;;;;5011901;28;20042;-68
2022/04/30 12:07:45;;;;;;;11.10;5.72;;;11.10;99.90;;;;;;5011808;28;20082;-70
2022/04/30 12:10:20;;;;;;;9.57;5.20;;;11.10;99.90;;;;;;5010263;28;20046;-70
2022/04/30 12:12:46;;;;;;;9.40;5.53;;;11.20;99.90;;;;;;5011872;28;20092;-70
2022/04/30 12:15:16;;;;;;;19.33;6.03;;;11.10;99.90;;;;;;5010515;28;20061;-70
2022/04/30 12:17:42;;;;;;;8.32;5.45;;;11.10;99.90;;;;;;5011741;28;20488;-70
2022/04/30 12:26:03;;;;;;;6.07;4.50;;;11.10;99.90;;;;;;5010429;28;20057;-70
2022/04/30 12:28:30;;;;;;;8.10;4.38;;;11.10;99.90;;;;;;5011818;28;20069;-69
2022/04/30 12:30:56;;;;;;;8.13;5.25;;;11.20;99.90;;;;;;5010261;28;20038;-71
2022/04/30 12:33:23;;;;;;;6.05;4.32;;;11.20;99.90;;;;;;5011577;28;20045;-70
2022/04/30 12:35:57;;;;;;;7.05;4.82;;;11.30;99.90;;;;;;5011509;28;20044;-70
2022/04/30 12:38:23;;;;;;;12.48;4.93;;;11.20;99.20;;;;;;5010342;28;20050;-70
2022/04/30 12:40:50;;;;;;;7.13;4.65;;;11.40;99.20;;;;;;5011446;28;20439;-70
2022/04/30 12:43:17;;;;;;;9.00;4.80;;;11.40;99.20;;;;;;5011827;28;20100;-70
2022/04/30 12:45:43;;;;;;;11.05;5.05;;;11.50;99.30;;;;;;5015165;28;20100;-70
2022/04/30 12:48:09;;;;;;;7.57;5.05;;;11.60;99.30;;;;;;5015111;28;20037;-71
2022/04/30 12:50:39;;;;;;;8.75;4.55;;;11.70;99.90;;;;;;5014530;28;20060;-70
2022/04/30 12:53:11;;;;;;;6.22;4.55;;;11.80;99.70;;;;;;5015018;28;20034;-71
2022/04/30 12:55:42;;;;;;;7.28;5.05;;;11.80;98.50;;;;;;5013883;28;20068;-70
2022/04/30 12:58:08;;;;;;;7.45;5.55;;;11.70;96.90;;;;;;5015082;28;20093;-70
2022/04/30 13:00:35;;;;;;;10.60;4.72;;;11.70;97.80;;;;;;5014646;28;20041;-70
2022/04/30 13:03:00;;;;;;;5.95;4.85;;;11.70;98.00;;;;;;5014668;28;20042;-70
2022/04/30 13:05:27;;;;;;;7.50;4.40;;;11.80;99.90;;;;;;5014794;28;20038;-70
2022/04/30 13:07:53;;;;;;;8.85;5.28;;;11.80;98.40;;;;;;5014961;28;20064;-70
2022/04/30 13:15:47;;;;;;;9.30;5.97;;;11.60;97.40;;;;;;5014518;28;20056;-70
2022/04/30 13:18:16;;;;;;;6.18;4.82;;;11.70;97.20;;;;;;5014698;28;20037;-70
2022/04/30 13:20:42;;;;;;;11.55;4.82;;;11.60;95.40;;;;;;5014147;28;20041;-68
2022/04/30 13:23:08;;;;;;;8.15;4.72;;;12.00;96.80;;;;;;5014352;28;20042;-72
2022/04/30 13:25:34;;;;;;;10.93;4.63;;;12.10;95.20;;;;;;5014719;28;20042;-67
2022/04/30 13:28:00;;;;;;;5.25;3.72;;;12.30;93.70;;;;;;5014352;28;20417;-68
2022/04/30 13:30:29;;;;;;;5.60;3.95;;;12.30;91.70;;;;;;5012936;28;20495;-68
2022/04/30 13:32:54;;;;;;;7.25;5.03;;;12.40;91.90;;;;;;5007165;28;20093;-69